Time,TemperatureF,DewpointF,PressureIn,WindDirection,WindDirectionDegrees,WindSpeedMPH,WindSpeedGustMPH,Humidity,HourlyPrecipIn,Conditions,Clouds,dailyrainin,SoftwareType,DateUTC
2013-01-16 00:00:00,37.9,31.7,30.20,East,90,0.0,0.0,78,0.06,,OVC,0.28,VWS V14.00,2013-01-16 05:00:00,
2013-01-16 00:02:00,37.9,31.7,30.21,East,90,0.0,0.0,78,0.06,,OVC,0.00,VWS V14.00,2013-01-16 05:02:00,
2013-01-16 00:07:00,37.9,31.7,30.21,East,90,0.0,0.0,78,0.06,,OVC,0.00,VWS V14.00,2013-01-16 05:07:00,
2013-01-16 00:12:00,37.7,31.8,30.19,NNE,22,2.9,2.9,79,0.06,,OVC,0.00,VWS V14.00,2013-01-16 05:12:00,
2013-01-16 00:17:00,37.5,31.6,30.20,NE,45,0.0,0.0,79,0.08,,OVC,0.02,VWS V14.00,2013-01-16 05:17:00,
2013-01-16 00:22:00,37.5,31.6,30.20,NE,45,0.0,0.0,79,0.08,,OVC,0.02,VWS V14.00,2013-01-16 05:22:00,
2013-01-16 00:27:00,37.5,31.9,30.20,ESE,112,0.0,0.0,80,0.06,,OVC,0.02,VWS V14.00,2013-01-16 05:27:00,
2013-01-16 00:32:00,37.4,31.8,30.19,ESE,112,0.0,0.0,80,0.08,,OVC,0.04,VWS V14.00,2013-01-16 05:32:00,
2013-01-16 00:37:00,37.4,31.8,30.19,NE,45,0.0,0.0,80,0.08,,OVC,0.04,VWS V14.00,2013-01-16 05:37:00,
2013-01-16 00:42:00,37.2,31.9,30.18,North,0,0.0,0.0,81,0.10,,OVC,0.06,VWS V14.00,2013-01-16 05:42:00,
2013-01-16 00:47:00,37.2,31.9,30.18,ENE,68,0.0,0.0,81,0.08,,OVC,0.06,VWS V14.00,2013-01-16 05:47:00,
2013-01-16 00:52:00,37.2,31.9,30.18,NE,45,0.0,0.0,81,0.08,,OVC,0.06,VWS V14.00,2013-01-16 05:52:00,
2013-01-16 00:57:00,37.2,31.9,30.18,NE,45,0.0,0.0,81,0.10,,OVC,0.08,VWS V14.00,2013-01-16 05:57:00,
2013-01-16 01:02:00,37.2,31.9,30.17,ENE,68,0.4,0.4,81,0.08,,OVC,0.08,VWS V14.00,2013-01-16 06:02:00,
2013-01-16 01:07:00,37.2,32.2,30.16,East,90,0.0,0.0,82,0.08,,OVC,0.08,VWS V14.00,2013-01-16 06:07:00,
2013-01-16 01:12:00,37.0,32.0,30.16,NNE,22,2.6,2.6,82,0.08,,OVC,0.08,VWS V14.00,2013-01-16 06:12:00,
2013-01-16 01:17:00,37.0,32.0,30.16,NE,45,2.0,2.0,82,0.08,,OVC,0.10,VWS V14.00,2013-01-16 06:17:00,
2013-01-16 01:22:00,37.0,32.0,30.16,NE,45,0.0,0.0,82,0.08,,OVC,0.10,VWS V14.00,2013-01-16 06:22:00,
2013-01-16 01:27:00,36.8,32.1,30.16,NNE,22,0.0,0.0,83,0.10,,OVC,0.12,VWS V14.00,2013-01-16 06:27:00,
2013-01-16 01:32:00,36.8,32.1,30.16,NE,45,0.0,0.0,83,0.08,,OVC,0.12,VWS V14.00,2013-01-16 06:32:00,
2013-01-16 01:38:00,36.8,32.1,30.17,NNE,22,0.2,0.2,83,0.08,,OVC,0.12,VWS V14.00,2013-01-16 06:38:00,
2013-01-16 01:43:00,36.6,31.9,30.16,East,90,0.0,0.0,83,0.06,,OVC,0.12,VWS V14.00,2013-01-16 06:43:00,
2013-01-16 01:48:00,36.6,32.2,30.15,NNE,22,3.1,3.1,84,0.08,,OVC,0.15,VWS V14.00,2013-01-16 06:48:00,
2013-01-16 01:53:00,36.6,32.2,30.15,NE,45,0.6,0.6,84,0.08,,OVC,0.15,VWS V14.00,2013-01-16 06:53:00,
2013-01-16 01:58:00,36.6,32.2,30.15,NE,45,0.0,0.0,84,0.06,,OVC,0.15,VWS V14.00,2013-01-16 06:58:00,
2013-01-16 02:03:00,36.5,32.1,30.15,NE,45,3.5,3.5,84,0.06,,OVC,0.15,VWS V14.00,2013-01-16 07:03:00,
2013-01-16 02:08:00,36.5,32.1,30.15,ENE,68,0.4,0.4,84,0.06,,OVC,0.15,VWS V14.00,2013-01-16 07:08:00,
2013-01-16 02:13:00,36.3,31.9,30.15,NE,45,1.7,1.7,84,0.08,,OVC,0.17,VWS V14.00,2013-01-16 07:13:00,
2013-01-16 02:18:00,36.3,31.9,30.15,NE,45,0.0,0.0,84,0.06,,OVC,0.17,VWS V14.00,2013-01-16 07:18:00,
2013-01-16 02:23:00,36.3,32.2,30.15,ENE,68,0.0,0.0,85,0.06,,OVC,0.17,VWS V14.00,2013-01-16 07:23:00,
2013-01-16 02:28:00,36.1,32.0,30.14,NE,45,0.0,0.0,85,0.04,,OVC,0.17,VWS V14.00,2013-01-16 07:28:00,
2013-01-16 02:33:00,36.1,32.0,30.14,ENE,68,0.0,0.0,85,0.04,,OVC,0.17,VWS V14.00,2013-01-16 07:33:00,
2013-01-16 02:38:00,36.1,32.0,30.14,ESE,112,0.0,0.0,85,0.06,,OVC,0.19,VWS V14.00,2013-01-16 07:38:00,
2013-01-16 02:43:00,36.1,32.0,30.14,ENE,68,1.7,1.7,85,0.06,,OVC,0.19,VWS V14.00,2013-01-16 07:43:00,
2013-01-16 02:48:00,36.1,32.0,30.13,ENE,68,2.6,2.6,85,0.06,,OVC,0.20,VWS V14.00,2013-01-16 07:48:00,
2013-01-16 02:53:00,36.1,32.0,30.13,NNE,22,0.0,0.0,85,0.06,,OVC,0.20,VWS V14.00,2013-01-16 07:53:00,
2013-01-16 02:58:00,36.1,32.3,30.12,ESE,112,0.0,0.0,86,0.08,,OVC,0.22,VWS V14.00,2013-01-16 07:58:00,
2013-01-16 03:03:00,36.1,32.3,30.11,ENE,68,0.0,0.0,86,0.10,,OVC,0.24,VWS V14.00,2013-01-16 08:03:00,
2013-01-16 03:08:00,36.1,32.3,30.11,NE,45,5.1,5.1,86,0.10,,OVC,0.24,VWS V14.00,2013-01-16 08:08:00,
2013-01-16 03:13:00,36.1,32.3,30.11,NNE,22,2.0,2.0,86,0.10,,OVC,0.27,VWS V14.00,2013-01-16 08:13:00,
2013-01-16 03:18:00,36.1,32.3,30.11,East,90,0.0,0.0,86,0.10,,OVC,0.27,VWS V14.00,2013-01-16 08:18:00,
2013-01-16 03:23:00,36.1,32.3,30.11,NE,45,0.4,0.4,86,0.14,,OVC,0.31,VWS V14.00,2013-01-16 08:23:00,
2013-01-16 03:28:00,36.1,32.3,30.11,NE,45,1.1,1.1,86,0.16,,OVC,0.33,VWS V14.00,2013-01-16 08:28:00,
2013-01-16 03:33:00,35.9,32.1,30.10,NE,45,0.0,0.0,86,0.16,,OVC,0.33,VWS V14.00,2013-01-16 08:33:00,
2013-01-16 03:38:00,36.1,32.3,30.10,NE,45,2.4,2.4,86,0.16,,OVC,0.35,VWS V14.00,2013-01-16 08:38:00,
2013-01-16 03:43:00,35.9,32.4,30.10,NE,45,2.9,2.9,87,0.19,,OVC,0.37,VWS V14.00,2013-01-16 08:43:00,
2013-01-16 03:48:00,35.9,32.4,30.10,East,90,0.0,0.0,87,0.19,,OVC,0.39,VWS V14.00,2013-01-16 08:48:00,
2013-01-16 03:53:00,36.1,32.6,30.09,NE,45,0.0,0.0,87,0.20,,OVC,0.41,VWS V14.00,2013-01-16 08:53:00,
2013-01-16 03:58:00,36.1,32.6,30.09,NE,45,1.7,1.7,87,0.20,,OVC,0.43,VWS V14.00,2013-01-16 08:58:00,
2013-01-16 04:02:00,36.1,32.6,30.09,ENE,68,0.0,0.0,87,0.20,,OVC,0.45,VWS V14.00,2013-01-16 09:02:00,
2013-01-16 04:07:00,36.1,32.6,30.09,NE,45,1.5,1.5,87,0.22,,OVC,0.47,VWS V14.00,2013-01-16 09:07:00,
2013-01-16 04:12:00,36.1,32.6,30.09,NE,45,1.5,1.5,87,0.22,,OVC,0.49,VWS V14.00,2013-01-16 09:12:00,
2013-01-16 04:17:00,36.1,32.6,30.09,NE,45,0.0,0.0,87,0.24,,OVC,0.51,VWS V14.00,2013-01-16 09:17:00,
2013-01-16 04:22:00,36.1,32.6,30.08,NE,45,3.1,3.1,87,0.22,,OVC,0.53,VWS V14.00,2013-01-16 09:22:00,
2013-01-16 04:27:00,36.1,32.6,30.08,NNW,338,0.0,0.0,87,0.22,,OVC,0.55,VWS V14.00,2013-01-16 09:27:00,
2013-01-16 04:32:00,36.1,32.6,30.08,NE,45,0.0,0.0,87,0.22,,OVC,0.55,VWS V14.00,2013-01-16 09:32:00,
2013-01-16 04:37:00,36.1,32.6,30.08,ENE,68,4.6,4.6,87,0.22,,OVC,0.57,VWS V14.00,2013-01-16 09:37:00,
2013-01-16 04:42:00,36.1,32.9,30.09,ENE,68,1.7,1.7,88,0.20,,OVC,0.57,VWS V14.00,2013-01-16 09:42:00,
2013-01-16 04:47:00,36.1,32.9,30.10,NE,45,4.4,4.4,88,0.20,,OVC,0.59,VWS V14.00,2013-01-16 09:47:00,
2013-01-16 04:52:00,36.1,32.9,30.10,NE,45,0.0,0.0,88,0.20,,OVC,0.61,VWS V14.00,2013-01-16 09:52:00,
2013-01-16 04:57:00,36.1,32.9,30.10,NE,45,0.0,0.0,88,0.19,,OVC,0.61,VWS V14.00,2013-01-16 09:57:00,
2013-01-16 05:02:00,36.1,32.9,30.10,NE,45,5.1,5.1,88,0.19,,OVC,0.63,VWS V14.00,2013-01-16 10:02:00,
2013-01-16 05:07:00,35.9,32.7,30.10,NE,45,0.0,0.0,88,0.17,,OVC,0.63,VWS V14.00,2013-01-16 10:07:00,
2013-01-16 05:12:00,35.9,32.7,30.09,NE,45,0.0,0.0,88,0.16,,OVC,0.65,VWS V14.00,2013-01-16 10:12:00,
2013-01-16 05:17:00,35.7,32.5,30.08,NE,45,0.0,0.0,88,0.14,,OVC,0.65,VWS V14.00,2013-01-16 10:17:00,
2013-01-16 05:22:00,35.7,32.5,30.08,NE,45,2.9,2.9,88,0.12,,OVC,0.65,VWS V14.00,2013-01-16 10:22:00,
2013-01-16 05:27:00,35.7,32.5,30.08,SE,135,0.0,0.0,88,0.12,,OVC,0.67,VWS V14.00,2013-01-16 10:27:00,
2013-01-16 05:32:00,35.7,32.5,30.07,NE,45,0.0,0.0,88,0.12,,OVC,0.67,VWS V14.00,2013-01-16 10:32:00,
2013-01-16 05:37:00,35.9,32.7,30.06,NE,45,0.0,0.0,88,0.10,,OVC,0.67,VWS V14.00,2013-01-16 10:37:00,
2013-01-16 05:42:00,35.9,32.7,30.07,NNE,22,0.0,0.0,88,0.12,,OVC,0.69,VWS V14.00,2013-01-16 10:42:00,
2013-01-16 05:47:00,35.9,32.7,30.07,NE,45,0.0,0.0,88,0.10,,OVC,0.69,VWS V14.00,2013-01-16 10:47:00,
2013-01-16 05:52:00,36.1,32.9,30.07,ENE,68,0.0,0.0,88,0.08,,OVC,0.69,VWS V14.00,2013-01-16 10:52:00,
2013-01-16 05:57:00,36.1,32.9,30.07,ENE,68,0.2,0.2,88,0.08,,OVC,0.69,VWS V14.00,2013-01-16 10:57:00,
2013-01-16 06:02:00,36.1,32.9,30.06,NE,45,0.0,0.0,88,0.06,,OVC,0.69,VWS V14.00,2013-01-16 11:02:00,
2013-01-16 06:07:00,36.1,32.9,30.06,NE,45,0.4,0.4,88,0.06,,OVC,0.69,VWS V14.00,2013-01-16 11:07:00,
2013-01-16 06:12:00,36.3,33.1,30.06,NNE,22,1.5,1.5,88,0.04,,OVC,0.69,VWS V14.00,2013-01-16 11:12:00,
2013-01-16 06:17:00,36.3,33.1,30.06,ENE,68,0.0,0.0,88,0.04,,OVC,0.69,VWS V14.00,2013-01-16 11:17:00,
2013-01-16 06:22:00,36.3,33.1,30.05,ENE,68,0.0,0.0,88,0.06,,OVC,0.72,VWS V14.00,2013-01-16 11:22:00,
2013-01-16 06:27:00,36.3,33.1,30.05,NE,45,0.0,0.0,88,0.04,,OVC,0.72,VWS V14.00,2013-01-16 11:27:00,
2013-01-16 06:32:00,36.5,33.3,30.04,NNE,22,0.0,0.0,88,0.04,,OVC,0.72,VWS V14.00,2013-01-16 11:32:00,
2013-01-16 06:37:00,36.5,33.3,30.03,NE,45,0.8,0.8,88,0.04,,OVC,0.72,VWS V14.00,2013-01-16 11:37:00,
2013-01-16 06:42:00,36.5,33.3,30.04,NNE,22,0.0,0.0,88,0.02,,OVC,0.72,VWS V14.00,2013-01-16 11:42:00,
2013-01-16 06:47:00,36.6,33.4,30.04,ENE,68,1.3,1.3,88,0.02,,OVC,0.72,VWS V14.00,2013-01-16 11:47:00,
2013-01-16 06:52:00,36.8,33.9,30.04,ENE,68,2.9,2.9,89,0.02,,OVC,0.72,VWS V14.00,2013-01-16 11:52:00,
2013-01-16 06:57:00,36.8,33.9,30.05,NE,45,0.0,0.0,89,0.02,,OVC,0.72,VWS V14.00,2013-01-16 11:57:00,
2013-01-16 07:02:00,37.0,34.1,30.04,ENE,68,0.8,0.8,89,0.02,,OVC,0.72,VWS V14.00,2013-01-16 12:02:00,
2013-01-16 07:07:00,37.2,34.3,30.04,NE,45,0.0,0.0,89,0.02,,OVC,0.72,VWS V14.00,2013-01-16 12:07:00,
2013-01-16 07:12:00,37.2,34.3,30.04,East,90,0.0,0.0,89,0.02,,OVC,0.72,VWS V14.00,2013-01-16 12:12:00,
2013-01-16 07:17:00,37.2,34.3,30.04,NE,45,0.6,0.6,89,0.04,,OVC,0.74,VWS V14.00,2013-01-16 12:17:00,
2013-01-16 07:22:00,37.4,34.5,30.04,NNE,22,3.5,3.5,89,0.02,,OVC,0.74,VWS V14.00,2013-01-16 12:22:00,
2013-01-16 07:27:00,37.4,34.5,30.04,NE,45,0.4,0.4,89,0.02,,OVC,0.74,VWS V14.00,2013-01-16 12:27:00,
2013-01-16 07:32:00,37.5,34.6,30.04,ENE,68,1.3,1.3,89,0.02,,OVC,0.74,VWS V14.00,2013-01-16 12:32:00,
2013-01-16 07:37:00,37.5,34.6,30.04,NE,45,0.0,0.0,89,0.02,,OVC,0.74,VWS V14.00,2013-01-16 12:37:00,
2013-01-16 07:42:00,37.7,34.8,30.03,NE,45,0.0,0.0,89,0.02,,OVC,0.74,VWS V14.00,2013-01-16 12:42:00,
2013-01-16 07:47:00,37.9,35.0,30.03,NE,45,0.0,0.0,89,0.02,,OVC,0.74,VWS V14.00,2013-01-16 12:47:00,
2013-01-16 07:52:00,37.9,35.0,30.03,East,90,0.0,0.0,89,0.02,,OVC,0.74,VWS V14.00,2013-01-16 12:52:00,
2013-01-16 07:57:00,38.1,35.2,30.03,NE,45,0.0,0.0,89,0.02,,OVC,0.74,VWS V14.00,2013-01-16 12:57:00,
2013-01-16 08:02:00,38.1,35.2,30.03,NNE,22,0.0,0.0,89,0.04,,OVC,0.76,VWS V14.00,2013-01-16 13:02:00,
2013-01-16 08:07:00,38.3,35.3,30.03,East,90,0.0,0.0,89,0.04,,OVC,0.76,VWS V14.00,2013-01-16 13:07:00,
2013-01-16 08:12:00,38.3,35.3,30.02,East,90,0.0,0.0,89,0.04,,OVC,0.76,VWS V14.00,2013-01-16 13:12:00,
2013-01-16 08:17:00,38.4,35.5,30.03,ENE,68,0.0,0.0,89,0.02,,OVC,0.76,VWS V14.00,2013-01-16 13:17:00,
2013-01-16 08:22:00,38.4,35.5,30.03,NE,45,0.0,0.0,89,0.02,,OVC,0.76,VWS V14.00,2013-01-16 13:22:00,
2013-01-16 08:27:00,38.6,35.6,30.02,NE,45,0.0,0.0,89,0.02,,OVC,0.76,VWS V14.00,2013-01-16 13:27:00,
2013-01-16 08:32:00,38.8,35.8,30.02,ENE,68,0.0,0.0,89,0.02,,OVC,0.76,VWS V14.00,2013-01-16 13:32:00,
2013-01-16 08:37:00,38.8,35.8,30.00,East,90,0.0,0.0,89,0.02,,OVC,0.76,VWS V14.00,2013-01-16 13:37:00,
2013-01-16 08:42:00,38.8,35.8,30.00,NE,45,0.0,0.0,89,0.02,,OVC,0.76,VWS V14.00,2013-01-16 13:42:00,
2013-01-16 08:47:00,39.0,36.3,30.00,NNE,22,2.0,2.0,90,0.02,,OVC,0.76,VWS V14.00,2013-01-16 13:47:00,
2013-01-16 08:52:00,39.0,36.3,30.00,ENE,68,0.0,0.0,90,0.02,,OVC,0.76,VWS V14.00,2013-01-16 13:52:00,
2013-01-16 08:57:00,39.3,36.6,30.00,NE,45,0.0,0.0,90,0.02,,OVC,0.76,VWS V14.00,2013-01-16 13:57:00,
2013-01-16 09:02:00,39.3,36.6,30.00,East,90,0.0,0.0,90,0.00,,OVC,0.76,VWS V14.00,2013-01-16 14:02:00,
2013-01-16 09:07:00,39.3,36.6,29.98,NE,45,0.0,0.0,90,0.00,,OVC,0.76,VWS V14.00,2013-01-16 14:07:00,
2013-01-16 09:12:00,39.7,37.0,29.98,ENE,68,0.0,0.0,90,0.00,,OVC,0.76,VWS V14.00,2013-01-16 14:12:00,
2013-01-16 09:17:00,39.7,37.0,29.97,SE,135,0.0,0.0,90,0.00,,OVC,0.76,VWS V14.00,2013-01-16 14:17:00,
2013-01-16 09:22:00,39.9,37.2,29.97,SE,135,0.0,0.0,90,0.00,,OVC,0.76,VWS V14.00,2013-01-16 14:22:00,
2013-01-16 09:27:00,39.9,37.2,29.97,East,90,0.0,0.0,90,0.00,,OVC,0.76,VWS V14.00,2013-01-16 14:27:00,
2013-01-16 09:32:00,40.2,37.5,29.97,SE,135,1.3,1.3,90,0.02,,OVC,0.78,VWS V14.00,2013-01-16 14:32:00,
2013-01-16 09:37:00,40.2,37.5,29.96,ESE,112,0.0,0.0,90,0.02,,OVC,0.78,VWS V14.00,2013-01-16 14:37:00,
2013-01-16 09:42:00,40.4,37.7,29.95,East,90,0.0,0.0,90,0.02,,OVC,0.78,VWS V14.00,2013-01-16 14:42:00,
2013-01-16 09:47:00,40.6,37.9,29.95,North,0,0.0,0.0,90,0.02,,OVC,0.78,VWS V14.00,2013-01-16 14:47:00,
2013-01-16 09:52:00,40.8,38.1,29.95,SE,135,0.0,0.0,90,0.02,,OVC,0.78,VWS V14.00,2013-01-16 14:52:00,
2013-01-16 09:57:00,40.8,38.1,29.95,SSE,158,0.0,0.0,90,0.02,,OVC,0.78,VWS V14.00,2013-01-16 14:57:00,
2013-01-16 10:02:00,40.8,38.1,29.97,ESE,112,0.0,0.0,90,0.02,,OVC,0.78,VWS V14.00,2013-01-16 15:02:00,
2013-01-16 10:07:00,41.0,38.3,29.98,ESE,112,0.0,0.0,90,0.02,,OVC,0.78,VWS V14.00,2013-01-16 15:07:00,
2013-01-16 10:12:00,41.3,38.6,29.98,ESE,112,0.0,0.0,90,0.04,,OVC,0.80,VWS V14.00,2013-01-16 15:12:00,
2013-01-16 10:17:00,41.3,38.6,29.97,ENE,68,0.0,0.0,90,0.04,,OVC,0.80,VWS V14.00,2013-01-16 15:17:00,
2013-01-16 10:22:00,41.3,38.6,29.97,ENE,68,0.0,0.0,90,0.04,,OVC,0.80,VWS V14.00,2013-01-16 15:22:00,
2013-01-16 10:27:00,41.5,38.8,29.96,ESE,112,0.0,0.0,90,0.04,,OVC,0.80,VWS V14.00,2013-01-16 15:27:00,
2013-01-16 10:32:00,41.7,39.0,29.98,ESE,112,0.0,0.0,90,0.02,,OVC,0.80,VWS V14.00,2013-01-16 15:32:00,
2013-01-16 10:37:00,41.7,39.0,29.98,ESE,112,0.0,0.0,90,0.02,,OVC,0.80,VWS V14.00,2013-01-16 15:37:00,
2013-01-16 10:42:00,41.9,39.2,29.97,East,90,0.0,0.0,90,0.02,,OVC,0.80,VWS V14.00,2013-01-16 15:42:00,
2013-01-16 10:47:00,42.0,39.3,29.97,East,90,0.0,0.0,90,0.04,,OVC,0.82,VWS V14.00,2013-01-16 15:47:00,
2013-01-16 10:52:00,42.2,39.5,29.98,North,0,0.0,0.0,90,0.04,,OVC,0.82,VWS V14.00,2013-01-16 15:52:00,
2013-01-16 10:57:00,42.0,39.3,29.98,East,90,0.0,0.0,90,0.04,,OVC,0.82,VWS V14.00,2013-01-16 15:57:00,
2013-01-16 11:02:00,42.0,39.3,29.98,East,90,0.0,0.0,90,0.04,,OVC,0.82,VWS V14.00,2013-01-16 16:02:00,
2013-01-16 11:07:00,42.4,39.7,29.97,East,90,0.0,0.0,90,0.04,,OVC,0.82,VWS V14.00,2013-01-16 16:07:00,
2013-01-16 11:12:00,42.4,39.7,29.97,East,90,0.0,0.0,90,0.02,,OVC,0.82,VWS V14.00,2013-01-16 16:12:00,
2013-01-16 11:17:00,42.6,39.9,29.96,East,90,0.0,0.0,90,0.02,,OVC,0.82,VWS V14.00,2013-01-16 16:17:00,
2013-01-16 11:22:00,42.6,39.6,29.95,East,90,0.0,0.0,89,0.02,,OVC,0.82,VWS V14.00,2013-01-16 16:22:00,
2013-01-16 11:27:00,42.6,39.6,29.94,East,90,0.0,0.0,89,0.02,,OVC,0.82,VWS V14.00,2013-01-16 16:27:00,
2013-01-16 11:32:00,42.9,39.9,29.94,East,90,0.0,0.0,89,0.02,,OVC,0.82,VWS V14.00,2013-01-16 16:32:00,
2013-01-16 11:37:00,42.9,39.9,29.94,East,90,0.0,0.0,89,0.02,,OVC,0.82,VWS V14.00,2013-01-16 16:37:00,
2013-01-16 11:42:00,43.1,40.1,29.93,East,90,0.0,0.0,89,0.02,,OVC,0.82,VWS V14.00,2013-01-16 16:42:00,
2013-01-16 11:47:00,43.1,40.1,29.93,East,90,0.0,0.0,89,0.00,,OVC,0.82,VWS V14.00,2013-01-16 16:47:00,
2013-01-16 11:52:00,43.1,40.1,29.92,East,90,0.0,0.0,89,0.00,,OVC,0.82,VWS V14.00,2013-01-16 16:52:00,
2013-01-16 11:57:00,43.3,40.3,29.91,East,90,0.0,0.0,89,0.00,,OVC,0.82,VWS V14.00,2013-01-16 16:57:00,
2013-01-16 12:02:00,43.3,40.3,29.91,East,90,0.0,0.0,89,0.00,,OVC,0.82,VWS V14.00,2013-01-16 17:02:00,
2013-01-16 12:07:00,43.5,40.5,29.92,East,90,0.0,0.0,89,0.00,,OVC,0.82,VWS V14.00,2013-01-16 17:07:00,
2013-01-16 12:12:00,43.5,40.5,29.92,East,90,0.0,0.0,89,0.00,,OVC,0.82,VWS V14.00,2013-01-16 17:12:00,
2013-01-16 12:17:00,43.3,40.3,29.92,NNW,338,0.0,0.0,89,0.00,,OVC,0.82,VWS V14.00,2013-01-16 17:17:00,
2013-01-16 12:22:00,43.1,40.1,29.93,West,270,0.0,0.0,89,0.00,,OVC,0.82,VWS V14.00,2013-01-16 17:22:00,
2013-01-16 12:27:00,42.9,39.9,29.92,WNW,292,0.0,0.0,89,0.00,,OVC,0.82,VWS V14.00,2013-01-16 17:27:00,
2013-01-16 12:32:00,42.4,39.1,29.92,West,270,0.0,0.0,88,0.00,,OVC,0.82,VWS V14.00,2013-01-16 17:32:00,
2013-01-16 12:37:00,42.0,38.7,29.91,NW,315,0.0,0.0,88,0.00,,OVC,0.82,VWS V14.00,2013-01-16 17:37:00,
2013-01-16 12:42:00,41.7,38.4,29.90,West,270,0.0,0.0,88,0.00,,OVC,0.82,VWS V14.00,2013-01-16 17:42:00,
2013-01-16 12:47:00,41.7,38.4,29.90,West,270,0.0,0.0,88,0.00,,OVC,0.82,VWS V14.00,2013-01-16 17:47:00,
2013-01-16 12:52:00,41.5,38.5,29.89,West,270,0.0,0.0,89,0.00,,OVC,0.82,VWS V14.00,2013-01-16 17:52:00,
2013-01-16 12:57:00,41.7,38.7,29.88,West,270,0.0,0.0,89,0.00,,OVC,0.82,VWS V14.00,2013-01-16 17:57:00,
2013-01-16 13:02:00,41.5,38.5,29.88,West,270,0.0,0.0,89,0.00,,OVC,0.18,VWS V14.00,2013-01-16 18:02:00,
2013-01-16 13:07:00,41.5,38.5,29.87,West,270,0.0,0.0,89,0.00,,OVC,0.82,VWS V14.00,2013-01-16 18:07:00,
2013-01-16 13:12:00,41.5,38.2,29.86,West,270,0.0,0.0,88,0.00,,OVC,0.82,VWS V14.00,2013-01-16 18:12:00,
2013-01-16 13:17:00,41.5,38.2,29.86,West,270,0.0,0.0,88,0.00,,OVC,0.82,VWS V14.00,2013-01-16 18:17:00,
2013-01-16 13:22:00,41.5,38.2,29.86,West,270,0.0,0.0,88,0.00,,OVC,0.82,VWS V14.00,2013-01-16 18:22:00,
2013-01-16 13:27:00,41.3,38.0,29.86,West,270,0.0,0.0,88,0.00,,OVC,0.82,VWS V14.00,2013-01-16 18:27:00,
2013-01-16 13:32:00,41.3,38.0,29.84,West,270,0.0,0.0,88,0.00,,OVC,0.82,VWS V14.00,2013-01-16 18:32:00,
2013-01-16 13:37:00,41.3,38.0,29.83,SSW,202,0.0,0.0,88,0.00,,OVC,0.82,VWS V14.00,2013-01-16 18:37:00,
2013-01-16 13:42:00,40.8,37.5,29.82,SSW,202,0.0,0.0,88,0.00,,OVC,0.82,VWS V14.00,2013-01-16 18:42:00,
2013-01-16 13:47:00,40.8,37.5,29.81,SSW,202,0.0,0.0,88,0.00,,OVC,0.82,VWS V14.00,2013-01-16 18:47:00,
2013-01-16 13:52:00,40.8,37.8,29.80,SSE,158,2.0,2.0,89,0.00,,OVC,0.82,VWS V14.00,2013-01-16 18:52:00,
2013-01-16 13:57:00,40.8,37.8,29.79,SE,135,0.0,0.0,89,0.00,,OVC,0.82,VWS V14.00,2013-01-16 18:57:00,
2013-01-16 14:02:00,40.8,37.8,29.79,SE,135,0.0,0.0,89,0.00,,OVC,0.82,VWS V14.00,2013-01-16 19:02:00,
2013-01-16 14:07:00,41.0,38.0,29.80,SE,135,0.0,0.0,89,0.00,,OVC,0.82,VWS V14.00,2013-01-16 19:07:00,
2013-01-16 14:12:00,41.3,38.3,29.80,SE,135,0.0,0.0,89,0.00,,OVC,0.82,VWS V14.00,2013-01-16 19:12:00,
2013-01-16 14:17:00,41.5,38.5,29.82,SE,135,0.0,0.0,89,0.00,,OVC,0.82,VWS V14.00,2013-01-16 19:17:00,
2013-01-16 14:22:00,41.7,38.7,29.87,WNW,292,0.0,0.0,89,0.00,,OVC,0.82,VWS V14.00,2013-01-16 19:22:00,
2013-01-16 14:27:00,41.5,38.5,29.90,West,270,0.0,0.0,89,0.00,,OVC,0.82,VWS V14.00,2013-01-16 19:27:00,
2013-01-16 14:32:00,41.3,38.3,29.92,WNW,292,3.3,3.3,89,0.00,,OVC,0.82,VWS V14.00,2013-01-16 19:32:00,
2013-01-16 14:37:00,41.0,38.0,29.89,NW,315,0.0,0.0,89,0.00,,OVC,0.82,VWS V14.00,2013-01-16 19:37:00,
2013-01-16 14:42:00,40.8,37.8,29.91,WNW,292,0.0,0.0,89,0.00,,OVC,0.82,VWS V14.00,2013-01-16 19:42:00,
2013-01-16 14:47:00,40.4,37.4,29.89,WNW,292,0.0,0.0,89,0.00,,OVC,0.82,VWS V14.00,2013-01-16 19:47:00,
2013-01-16 14:52:00,40.1,37.1,29.88,NNE,22,3.8,3.8,89,0.00,,OVC,0.82,VWS V14.00,2013-01-16 19:52:00,
2013-01-16 14:57:00,39.9,36.9,29.92,NNW,338,9.3,9.3,89,0.00,,OVC,0.82,VWS V14.00,2013-01-16 19:57:00,
2013-01-16 15:02:00,39.5,36.5,29.93,NW,315,0.0,0.0,89,0.00,,OVC,0.82,VWS V14.00,2013-01-16 20:02:00,
2013-01-16 15:07:00,39.0,35.8,29.89,West,270,0.0,0.0,88,0.00,,OVC,0.82,VWS V14.00,2013-01-16 20:07:00,
2013-01-16 15:12:00,38.8,35.6,29.89,WNW,292,0.0,0.0,88,0.00,,OVC,0.82,VWS V14.00,2013-01-16 20:12:00,
2013-01-16 15:17:00,38.4,35.2,29.89,NW,315,3.1,3.1,88,0.02,,OVC,0.84,VWS V14.00,2013-01-16 20:17:00,
2013-01-16 15:22:00,38.3,35.1,29.88,WNW,292,0.0,0.0,88,0.02,,OVC,0.84,VWS V14.00,2013-01-16 20:22:00,
2013-01-16 15:27:00,38.1,34.9,29.87,WNW,292,0.0,0.0,88,0.02,,OVC,0.84,VWS V14.00,2013-01-16 20:27:00,
2013-01-16 15:32:00,37.9,34.7,29.91,WNW,292,0.0,0.0,88,0.02,,OVC,0.84,VWS V14.00,2013-01-16 20:32:00,
2013-01-16 15:37:00,37.9,34.7,29.87,North,0,0.0,0.0,88,0.02,,OVC,0.84,VWS V14.00,2013-01-16 20:37:00,
2013-01-16 15:42:00,37.9,34.7,29.87,North,0,0.0,0.0,88,0.02,,OVC,0.84,VWS V14.00,2013-01-16 20:42:00,
2013-01-16 15:47:00,37.7,34.5,29.93,NW,315,0.0,0.0,88,0.02,,OVC,0.84,VWS V14.00,2013-01-16 20:47:00,
2013-01-16 15:52:00,37.5,34.3,29.93,NW,315,0.0,0.0,88,0.02,,OVC,0.84,VWS V14.00,2013-01-16 20:52:00,
2013-01-16 15:57:00,37.5,34.3,29.92,West,270,0.0,0.0,88,0.02,,OVC,0.84,VWS V14.00,2013-01-16 20:57:00,
2013-01-16 16:02:00,37.5,34.3,29.91,SW,225,0.0,0.0,88,0.02,,OVC,0.84,VWS V14.00,2013-01-16 21:02:00,
2013-01-16 16:07:00,37.5,34.6,29.90,SW,225,0.0,0.0,89,0.02,,OVC,0.84,VWS V14.00,2013-01-16 21:07:00,
2013-01-16 16:12:00,37.5,34.6,29.91,SW,225,0.0,0.0,89,0.02,,OVC,0.84,VWS V14.00,2013-01-16 21:12:00,
2013-01-16 16:17:00,37.7,34.8,29.90,SW,225,0.0,0.0,89,0.00,,OVC,0.84,VWS V14.00,2013-01-16 21:17:00,
2013-01-16 16:22:00,37.9,35.0,29.91,SW,225,0.0,0.0,89,0.00,,OVC,0.84,VWS V14.00,2013-01-16 21:22:00,
2013-01-16 16:27:00,37.9,35.0,29.92,SW,225,0.0,0.0,89,0.00,,OVC,0.84,VWS V14.00,2013-01-16 21:27:00,
2013-01-16 16:32:00,38.1,35.2,29.92,West,270,0.0,0.0,89,0.00,,OVC,0.84,VWS V14.00,2013-01-16 21:32:00,
2013-01-16 16:37:00,38.1,35.2,29.92,SW,225,0.0,0.0,89,0.00,,OVC,0.84,VWS V14.00,2013-01-16 21:37:00,
2013-01-16 16:42:00,38.1,35.2,29.92,SW,225,0.0,0.0,89,0.00,,OVC,0.84,VWS V14.00,2013-01-16 21:42:00,
2013-01-16 16:47:00,38.1,35.2,29.93,SW,225,0.0,0.0,89,0.00,,OVC,0.84,VWS V14.00,2013-01-16 21:47:00,
2013-01-16 16:52:00,38.1,35.2,29.92,West,270,0.0,0.0,89,0.00,,OVC,0.84,VWS V14.00,2013-01-16 21:52:00,
2013-01-16 16:57:00,37.9,35.0,29.93,West,270,0.0,0.0,89,0.00,,OVC,0.84,VWS V14.00,2013-01-16 21:57:00,
2013-01-16 17:02:00,37.9,35.0,29.93,West,270,0.0,0.0,89,0.00,,OVC,0.84,VWS V14.00,2013-01-16 22:02:00,
2013-01-16 17:07:00,37.9,35.0,29.93,West,270,0.0,0.0,89,0.00,,OVC,0.84,VWS V14.00,2013-01-16 22:07:00,
2013-01-16 17:12:00,37.9,35.0,29.93,West,270,0.0,0.0,89,0.00,,OVC,0.84,VWS V14.00,2013-01-16 22:12:00,
2013-01-16 17:17:00,37.7,34.8,29.93,WNW,292,0.0,0.0,89,0.00,,OVC,0.84,VWS V14.00,2013-01-16 22:17:00,
2013-01-16 17:22:00,37.7,34.8,29.93,West,270,0.0,0.0,89,0.00,,OVC,0.84,VWS V14.00,2013-01-16 22:22:00,
2013-01-16 17:27:00,37.7,34.8,29.93,West,270,0.0,0.0,89,0.00,,OVC,0.84,VWS V14.00,2013-01-16 22:27:00,
2013-01-16 17:32:00,37.7,34.8,29.93,WSW,248,0.0,0.0,89,0.00,,OVC,0.84,VWS V14.00,2013-01-16 22:32:00,
2013-01-16 17:37:00,37.7,34.8,29.93,WSW,248,0.0,0.0,89,0.00,,OVC,0.84,VWS V14.00,2013-01-16 22:37:00,
2013-01-16 17:42:00,37.7,34.8,29.93,West,270,0.6,0.6,89,0.00,,OVC,0.84,VWS V14.00,2013-01-16 22:42:00,
2013-01-16 17:47:00,37.5,34.6,29.94,West,270,0.0,0.0,89,0.00,,OVC,0.84,VWS V14.00,2013-01-16 22:47:00,
2013-01-16 17:52:00,37.4,34.5,29.95,WNW,292,1.3,1.3,89,0.00,,OVC,0.84,VWS V14.00,2013-01-16 22:52:00,
2013-01-16 17:57:00,37.4,34.5,29.94,West,270,0.0,0.0,89,0.00,,OVC,0.84,VWS V14.00,2013-01-16 22:57:00,
2013-01-16 18:02:00,37.4,34.5,29.94,WNW,292,0.0,0.0,89,0.00,,OVC,0.84,VWS V14.00,2013-01-16 23:02:00,
2013-01-16 18:07:00,37.4,34.5,29.94,West,270,0.0,0.0,89,0.00,,OVC,0.84,VWS V14.00,2013-01-16 23:07:00,
2013-01-16 18:12:00,37.5,34.6,29.93,West,270,0.0,0.0,89,0.00,,OVC,0.84,VWS V14.00,2013-01-16 23:12:00,
2013-01-16 18:17:00,37.7,34.8,29.93,West,270,0.0,0.0,89,0.00,,OVC,0.84,VWS V14.00,2013-01-16 23:17:00,
2013-01-16 18:22:00,37.5,34.6,29.93,West,270,0.0,0.0,89,0.00,,OVC,0.84,VWS V14.00,2013-01-16 23:22:00,
2013-01-16 18:27:00,37.5,34.6,29.94,WSW,248,0.0,0.0,89,0.00,,OVC,0.84,VWS V14.00,2013-01-16 23:27:00,
2013-01-16 18:32:00,37.5,34.6,29.94,West,270,0.0,0.0,89,0.00,,OVC,0.84,VWS V14.00,2013-01-16 23:32:00,
2013-01-16 18:37:00,37.5,34.6,29.93,WSW,248,0.0,0.0,89,0.00,,OVC,0.84,VWS V14.00,2013-01-16 23:37:00,
2013-01-16 18:42:00,37.5,34.6,29.93,WSW,248,0.0,0.0,89,0.00,,OVC,0.84,VWS V14.00,2013-01-16 23:42:00,
2013-01-16 18:47:00,37.7,34.8,29.94,West,270,0.0,0.0,89,0.00,,OVC,0.84,VWS V14.00,2013-01-16 23:47:00,
2013-01-16 18:52:00,37.7,34.8,29.94,WSW,248,0.0,0.0,89,0.00,,OVC,0.84,VWS V14.00,2013-01-16 23:52:00,
2013-01-16 18:57:00,37.7,34.8,29.93,WSW,248,0.0,0.0,89,0.00,,OVC,0.84,VWS V14.00,2013-01-16 23:57:00,
2013-01-16 19:02:00,37.9,35.0,29.94,West,270,0.0,0.0,89,0.00,,OVC,0.84,VWS V14.00,2013-01-17 00:02:00,
2013-01-16 19:07:00,37.7,34.8,29.93,WSW,248,0.0,0.0,89,0.00,,OVC,0.84,VWS V14.00,2013-01-17 00:07:00,
2013-01-16 19:12:00,37.7,34.8,29.94,WSW,248,0.0,0.0,89,0.00,,OVC,0.84,VWS V14.00,2013-01-17 00:12:00,
2013-01-16 19:17:00,37.7,34.8,29.93,SW,225,0.8,0.8,89,0.00,,OVC,0.84,VWS V14.00,2013-01-17 00:17:00,
2013-01-16 19:22:00,37.7,34.8,29.93,SW,225,1.3,1.3,89,0.00,,OVC,0.84,VWS V14.00,2013-01-17 00:22:00,
2013-01-16 19:27:00,37.7,34.8,29.93,WSW,248,0.6,0.6,89,0.00,,OVC,0.84,VWS V14.00,2013-01-17 00:27:00,
2013-01-16 19:32:00,37.7,34.8,29.93,SSW,202,0.0,0.0,89,0.00,,OVC,0.84,VWS V14.00,2013-01-17 00:32:00,
2013-01-16 19:36:00,37.7,34.8,29.93,SW,225,0.0,0.0,89,0.00,,OVC,0.84,VWS V14.00,2013-01-17 00:36:00,
2013-01-16 19:42:00,37.7,34.8,29.93,West,270,0.0,0.0,89,0.00,,OVC,0.84,VWS V14.00,2013-01-17 00:42:00,
2013-01-16 19:47:00,37.7,34.8,29.93,West,270,1.1,1.1,89,0.00,,OVC,0.84,VWS V14.00,2013-01-17 00:47:00,
2013-01-16 19:52:00,37.7,34.8,29.94,WSW,248,0.4,0.4,89,0.00,,OVC,0.84,VWS V14.00,2013-01-17 00:52:00,
2013-01-16 19:56:00,37.7,34.8,29.93,WSW,248,0.2,0.2,89,0.00,,OVC,0.84,VWS V14.00,2013-01-17 00:56:00,
2013-01-16 20:02:00,37.7,34.8,29.94,West,270,0.6,0.6,89,0.00,,OVC,0.84,VWS V14.00,2013-01-17 01:02:00,
2013-01-16 20:07:00,37.7,34.8,29.93,West,270,0.0,0.0,89,0.00,,OVC,0.84,VWS V14.00,2013-01-17 01:07:00,
2013-01-16 20:12:00,37.7,34.8,29.93,WSW,248,0.0,0.0,89,0.00,,OVC,0.84,VWS V14.00,2013-01-17 01:12:00,
2013-01-16 20:16:00,37.7,34.8,29.93,WSW,248,0.0,0.0,89,0.00,,OVC,0.84,VWS V14.00,2013-01-17 01:16:00,
2013-01-16 20:21:00,37.7,34.8,29.93,WSW,248,0.0,0.0,89,0.00,,OVC,0.84,VWS V14.00,2013-01-17 01:21:00,
2013-01-16 20:26:00,37.7,34.8,29.93,West,270,0.0,0.0,89,0.00,,OVC,0.84,VWS V14.00,2013-01-17 01:26:00,
2013-01-16 20:31:00,37.9,35.0,29.94,WSW,248,0.0,0.0,89,0.00,,OVC,0.84,VWS V14.00,2013-01-17 01:31:00,
2013-01-16 20:36:00,37.9,35.0,29.94,West,270,0.6,0.6,89,0.00,,OVC,0.84,VWS V14.00,2013-01-17 01:36:00,
2013-01-16 20:41:00,37.9,35.0,29.93,WSW,248,0.4,0.4,89,0.00,,OVC,0.84,VWS V14.00,2013-01-17 01:41:00,
2013-01-16 20:46:00,37.9,35.0,29.94,WSW,248,2.2,2.2,89,0.00,,OVC,0.84,VWS V14.00,2013-01-17 01:46:00,
2013-01-16 20:51:00,37.9,35.0,29.94,WSW,248,0.0,0.0,89,0.00,,OVC,0.84,VWS V14.00,2013-01-17 01:51:00,
2013-01-16 20:56:00,37.9,35.0,29.94,WSW,248,0.0,0.0,89,0.00,,OVC,0.84,VWS V14.00,2013-01-17 01:56:00,
2013-01-16 21:01:00,37.9,35.0,29.94,West,270,0.0,0.0,89,0.00,,OVC,0.84,VWS V14.00,2013-01-17 02:01:00,
2013-01-16 21:06:00,37.7,34.8,29.94,West,270,0.0,0.0,89,0.00,,OVC,0.84,VWS V14.00,2013-01-17 02:06:00,
2013-01-16 21:11:00,37.9,35.0,29.95,WSW,248,0.0,0.0,89,0.00,,OVC,0.84,VWS V14.00,2013-01-17 02:11:00,
2013-01-16 21:16:00,37.9,35.0,29.94,West,270,0.0,0.0,89,0.00,,OVC,0.84,VWS V14.00,2013-01-17 02:16:00,
2013-01-16 21:21:00,37.9,35.0,29.93,West,270,0.6,0.6,89,0.00,,OVC,0.84,VWS V14.00,2013-01-17 02:21:00,
2013-01-16 21:26:00,37.9,35.0,29.94,WSW,248,0.0,0.0,89,0.00,,OVC,0.84,VWS V14.00,2013-01-17 02:26:00,
2013-01-16 21:31:00,37.9,35.0,29.94,SW,225,0.0,0.0,89,0.00,,OVC,0.84,VWS V14.00,2013-01-17 02:31:00,
2013-01-16 21:36:00,38.1,35.2,29.94,WSW,248,0.0,0.0,89,0.00,,OVC,0.84,VWS V14.00,2013-01-17 02:36:00,
2013-01-16 21:41:00,38.1,35.2,29.94,West,270,0.0,0.0,89,0.00,,OVC,0.84,VWS V14.00,2013-01-17 02:41:00,
2013-01-16 21:46:00,38.1,35.2,29.94,WNW,292,1.7,1.7,89,0.00,,OVC,0.84,VWS V14.00,2013-01-17 02:46:00,
2013-01-16 21:51:00,38.1,35.2,29.94,WNW,292,2.6,2.6,89,0.00,,OVC,0.84,VWS V14.00,2013-01-17 02:51:00,
2013-01-16 21:56:00,38.1,35.2,29.94,West,270,0.0,0.0,89,0.00,,OVC,0.84,VWS V14.00,2013-01-17 02:56:00,
2013-01-16 22:01:00,38.1,35.2,29.94,WNW,292,1.1,1.1,89,0.00,,OVC,0.84,VWS V14.00,2013-01-17 03:01:00,
2013-01-16 22:06:00,38.3,35.3,29.93,WSW,248,0.0,0.0,89,0.00,,OVC,0.84,VWS V14.00,2013-01-17 03:06:00,
2013-01-16 22:11:00,38.3,35.3,29.92,WSW,248,0.0,0.0,89,0.00,,OVC,0.84,VWS V14.00,2013-01-17 03:11:00,
2013-01-16 22:16:00,38.3,35.3,29.91,West,270,0.0,0.0,89,0.00,,OVC,0.84,VWS V14.00,2013-01-17 03:16:00,
2013-01-16 22:21:00,38.3,35.3,29.92,SSW,202,0.0,0.0,89,0.00,,OVC,0.84,VWS V14.00,2013-01-17 03:21:00,
2013-01-16 22:26:00,38.3,35.3,29.92,SW,225,0.0,0.0,89,0.00,,OVC,0.84,VWS V14.00,2013-01-17 03:26:00,
2013-01-16 22:31:00,38.3,35.3,29.94,West,270,0.0,0.0,89,0.00,,OVC,0.84,VWS V14.00,2013-01-17 03:31:00,
2013-01-16 22:36:00,38.3,35.3,29.93,WSW,248,0.0,0.0,89,0.00,,OVC,0.84,VWS V14.00,2013-01-17 03:36:00,
2013-01-16 22:41:00,38.3,35.3,29.94,WSW,248,0.0,0.0,89,0.00,,OVC,0.84,VWS V14.00,2013-01-17 03:41:00,
2013-01-16 22:46:00,38.3,35.3,29.93,WSW,248,0.0,0.0,89,0.00,,OVC,0.84,VWS V14.00,2013-01-17 03:46:00,
2013-01-16 22:51:00,38.3,35.3,29.93,West,270,0.0,0.0,89,0.00,,OVC,0.84,VWS V14.00,2013-01-17 03:51:00,
2013-01-16 22:56:00,38.4,35.5,29.94,West,270,0.0,0.0,89,0.00,,OVC,0.84,VWS V14.00,2013-01-17 03:56:00,
2013-01-16 23:01:00,38.4,35.5,29.93,West,270,1.3,1.3,89,0.00,,OVC,0.84,VWS V14.00,2013-01-17 04:01:00,
2013-01-16 23:06:00,38.4,35.5,29.94,North,0,0.0,0.0,89,0.00,,OVC,0.84,VWS V14.00,2013-01-17 04:06:00,
2013-01-16 23:11:00,38.4,35.5,29.94,West,270,0.0,0.0,89,0.00,,OVC,0.84,VWS V14.00,2013-01-17 04:11:00,
2013-01-16 23:16:00,38.3,35.3,29.94,West,270,0.0,0.0,89,0.00,,OVC,0.84,VWS V14.00,2013-01-17 04:16:00,
2013-01-16 23:21:00,38.4,35.5,29.94,West,270,0.0,0.0,89,0.00,,OVC,0.84,VWS V14.00,2013-01-17 04:21:00,
2013-01-16 23:26:00,38.4,35.5,29.94,West,270,0.0,0.0,89,0.00,,OVC,0.84,VWS V14.00,2013-01-17 04:26:00,
2013-01-16 23:31:00,38.4,35.5,29.93,WSW,248,0.0,0.0,89,0.00,,OVC,0.84,VWS V14.00,2013-01-17 04:31:00,
2013-01-16 23:36:00,38.4,35.5,29.93,WNW,292,0.0,0.0,89,0.00,,OVC,0.84,VWS V14.00,2013-01-17 04:36:00,
2013-01-16 23:41:00,38.4,35.5,29.93,West,270,1.3,1.3,89,0.00,,OVC,0.84,VWS V14.00,2013-01-17 04:41:00,
2013-01-16 23:46:00,38.4,35.5,29.93,WSW,248,0.0,0.0,89,0.00,,OVC,0.84,VWS V14.00,2013-01-17 04:46:00,
2013-01-16 23:51:00,38.4,35.5,29.94,WSW,248,0.0,0.0,89,0.00,,OVC,0.84,VWS V14.00,2013-01-17 04:51:00,
2013-01-16 23:56:00,38.6,35.6,29.93,West,270,0.0,0.0,89,0.00,,OVC,0.84,VWS V14.00,2013-01-17 04:56:00,